Time;durP1;ratioP1;P1;durP2;ratioP2;P2;SDS_P1;SDS_P2;PMS_P1;PMS_P2;Temp;Humidity;BMP_temperature;BMP_pressure;BME280_temperature;BME280_humidity;BME280_pressure;Samples;Min_cycle;Max_cycle;Signal;HPM_P1;HPM_P2
2021/03/18 00:01:01;;;;;;;11.25;2.15;;;;;;;-145.50;100.00;65435.88;4960819;28;20058;-72
2021/03/18 00:03:33;;;;;;;10.65;2.50;;;;;;;-145.50;100.00;65435.88;4939532;28;20065;-72
2021/03/18 00:06:00;;;;;;;8.32;2.25;;;;;;;-145.50;100.00;65435.88;4953610;28;20061;-72
2021/03/18 00:08:27;;;;;;;11.75;2.38;;;;;;;-145.50;100.00;65435.88;4966425;28;20055;-72
2021/03/18 00:10:57;;;;;;;6.65;2.17;;;;;;;-145.50;100.00;65435.88;4932183;28;20737;-72
2021/03/18 00:13:24;;;;;;;9.07;2.03;;;;;;;-145.50;100.00;65435.88;4970443;28;20085;-72
2021/03/18 00:15:51;;;;;;;9.45;1.92;;;;;;;-145.50;100.00;65435.88;4946372;28;20110;-72
2021/03/18 00:18:20;;;;;;;9.75;2.03;;;;;;;-145.50;100.00;65435.88;4942315;28;20067;-72
2021/03/18 00:20:47;;;;;;;5.10;2.30;;;;;;;-145.50;100.00;65435.88;4966674;28;20051;-72
2021/03/18 00:23:14;;;;;;;8.40;2.00;;;;;;;-145.50;100.00;65435.88;4959623;28;20066;-72
2021/03/18 00:25:40;;;;;;;12.25;2.67;;;;;;;-145.50;100.00;65435.88;4966208;28;20146;-72
2021/03/18 00:28:07;;;;;;;9.85;3.08;;;;;;;-145.50;100.00;65435.88;4957650;28;20121;-72
2021/03/18 00:30:33;;;;;;;5.35;1.70;;;;;;;-145.50;100.00;65435.88;4962852;28;20491;-72
2021/03/18 00:32:59;;;;;;;9.43;2.28;;;;;;;-145.50;100.00;65435.88;4959954;28;20595;-72
2021/03/18 00:35:28;;;;;;;9.88;2.30;;;;;;;-145.50;100.00;65435.88;4965501;28;20522;-72
2021/03/18 00:37:56;;;;;;;6.20;2.08;;;;;;;-145.50;100.00;65435.88;4966558;28;20062;-72
2021/03/18 00:40:26;;;;;;;5.30;1.85;;;;;;;-145.50;100.00;65435.88;4957539;28;20129;-72
2021/03/18 00:42:57;;;;;;;7.20;2.38;;;;;;;-145.50;100.00;65435.88;4956112;28;20055;-73
2021/03/18 00:45:26;;;;;;;6.45;1.67;;;;;;;-145.50;100.00;65435.88;4950581;28;20165;-72
2021/03/18 00:47:53;;;;;;;11.45;1.75;;;;;;;-145.50;100.00;65435.88;4959320;28;20122;-72
2021/03/18 00:50:41;;;;;;;9.38;2.28;;;;;;;-145.50;100.00;65435.88;4959083;28;20121;-73
2021/03/18 00:53:10;;;;;;;4.95;1.70;;;;;;;-145.50;100.00;65435.88;4963153;28;20093;-72
2021/03/18 00:55:36;;;;;;;8.52;2.30;;;;;;;-145.50;100.00;65435.88;4957190;28;20085;-72
2021/03/18 00:58:02;;;;;;;9.40;2.05;;;;;;;-145.50;100.00;65435.88;4962893;28;20466;-72
2021/03/18 01:00:38;;;;;;;7.88;1.88;;;;;;;-145.50;100.00;65435.88;4949069;28;20110;-72
2021/03/18 01:03:05;;;;;;;11.57;1.88;;;;;;;-145.50;100.00;65435.88;4941671;28;20550;-72
2021/03/18 01:05:41;;;;;;;7.32;2.00;;;;;;;-145.50;100.00;65435.88;4955873;28;20783;-72
2021/03/18 01:08:09;;;;;;;4.97;1.63;;;;;;;-145.50;100.00;65435.88;4955612;28;20059;-72
2021/03/18 01:10:40;;;;;;;7.70;2.10;;;;;;;-145.50;100.00;65435.88;4959929;28;20073;-73
2021/03/18 01:13:06;;;;;;;8.13;2.22;;;;;;;-145.50;100.00;65435.88;4960287;28;20567;-72
2021/03/18 01:15:33;;;;;;;9.40;2.08;;;;;;;-145.50;100.00;65435.88;4975586;28;20503;-72
2021/03/18 01:17:59;;;;;;;11.18;2.42;;;;;;;-145.50;100.00;65435.88;4960503;28;20097;-72
2021/03/18 01:20:26;;;;;;;10.48;2.33;;;;;;;-145.50;100.00;65435.88;4966141;28;20491;-72
2021/03/18 01:22:55;;;;;;;12.13;2.60;;;;;;;-145.50;100.00;65435.88;4949542;28;20050;-72
2021/03/18 01:25:21;;;;;;;9.32;2.20;;;;;;;-145.50;100.00;65435.88;4956236;28;20073;-72
2021/03/18 01:27:47;;;;;;;7.88;2.40;;;;;;;-145.50;100.00;65435.88;4965439;28;20145;-72
2021/03/18 01:30:18;;;;;;;9.77;2.72;;;;;;;-145.50;100.00;65435.88;4942655;28;20058;-72
2021/03/18 01:32:44;;;;;;;13.60;2.92;;;;;;;-145.50;100.00;65435.88;4962641;28;20417;-72
2021/03/18 01:35:17;;;;;;;11.98;1.90;;;;;;;-145.50;100.00;65435.88;4959778;28;20141;-72
2021/03/18 01:37:44;;;;;;;11.27;2.45;;;;;;;-145.50;100.00;65435.88;4959206;28;20058;-72
2021/03/18 01:40:13;;;;;;;6.30;2.22;;;;;;;-145.50;100.00;65435.88;4959811;28;20471;-72
2021/03/18 01:42:39;;;;;;;14.57;2.45;;;;;;;-145.50;100.00;65435.88;4964012;28;20466;-72
2021/03/18 01:45:08;;;;;;;9.93;2.08;;;;;;;-145.50;100.00;65435.88;4966193;28;20130;-72
2021/03/18 01:47:36;;;;;;;7.15;1.80;;;;;;;-145.50;100.00;65435.88;4959240;28;20066;-72
2021/03/18 01:50:04;;;;;;;;;;;;;;;-145.50;100.00;65435.88;4953936;28;20054;-72
2021/03/18 01:52:30;;;;;;;4.70;1.80;;;;;;;-145.50;100.00;65435.88;4958692;28;20012;-72
2021/03/18 01:54:56;;;;;;;7.10;2.38;;;;;;;-145.50;100.00;65435.88;4965880;28;20149;-73
2021/03/18 01:57:23;;;;;;;7.18;2.50;;;;;;;-145.50;100.00;65435.88;4959640;28;20794;-73
2021/03/18 01:59:49;;;;;;;9.55;2.75;;;;;;;-145.50;100.00;65435.88;4965102;28;20484;-72
2021/03/18 02:02:16;;;;;;;6.60;2.30;;;;;;;-145.50;100.00;65435.88;4932274;28;20090;-72
2021/03/18 02:04:42;;;;;;;6.80;1.90;;;;;;;-145.50;100.00;65435.88;4956856;28;20062;-71
2021/03/18 02:07:08;;;;;;;5.93;2.35;;;;;;;-145.50;100.00;65435.88;4965341;28;20070;-71
2021/03/18 02:09:34;;;;;;;9.43;2.42;;;;;;;-145.50;100.00;65435.88;4958982;28;20086;-71
2021/03/18 02:12:00;;;;;;;6.97;2.42;;;;;;;-145.50;100.00;65435.88;4959699;28;20886;-71
2021/03/18 02:14:26;;;;;;;7.50;2.78;;;;;;;-145.50;100.00;65435.88;4957169;28;20499;-71
2021/03/18 02:16:56;;;;;;;8.43;2.40;;;;;;;-145.50;100.00;65435.88;4962813;28;20495;-72
2021/03/18 02:19:45;;;;;;;18.67;4.38;;;;;;;-145.50;100.00;65435.88;4943845;28;20069;-71
2021/03/18 02:23:08;;;;;;;7.80;4.00;;;;;;;-145.50;100.00;65435.88;4964382;28;20907;-71
2021/03/18 02:25:56;;;;;;;10.00;4.38;;;;;;;-145.50;100.00;65435.88;4893857;29;20204;-71
2021/03/18 02:28:25;;;;;;;;;;;;;;;-145.50;100.00;65435.88;4905338;29;20099;-71
2021/03/18 02:30:59;;;;;;;11.52;4.13;;;;;;;-145.50;100.00;65435.88;4936109;28;20087;-71
2021/03/18 02:34:00;;;;;;;9.40;4.07;;;;;;;-145.50;100.00;65435.88;4962103;28;20534;-71
2021/03/18 02:36:49;;;;;;;8.77;3.30;;;;;;;-145.50;100.00;65435.88;4958722;28;20063;-72
2021/03/18 02:39:31;;;;;;;10.07;4.07;;;;;;;-145.50;100.00;65435.88;4956737;28;20094;-72
2021/03/18 02:42:01;;;;;;;16.98;3.42;;;;;;;-145.50;100.00;65435.88;4948543;28;20092;-71
2021/03/18 02:44:30;;;;;;;19.50;6.47;;;;;;;-145.50;100.00;65435.88;4956807;28;20677;-72
2021/03/18 02:47:01;;;;;;;14.85;6.63;;;;;;;-145.50;100.00;65435.88;4938204;28;20051;-71
2021/03/18 02:49:30;;;;;;;18.98;6.78;;;;;;;-145.50;100.00;65435.88;4964048;28;20446;-71
2021/03/18 02:51:57;;;;;;;17.45;5.75;;;;;;;-145.50;100.00;65435.88;4969106;28;20632;-71
2021/03/18 02:54:25;;;;;;;11.70;4.70;;;;;;;-145.50;100.00;65435.88;4958243;28;20137;-72
2021/03/18 02:56:54;;;;;;;9.65;4.55;;;;;;;-145.50;100.00;65435.88;4943500;28;20090;-71
2021/03/18 02:59:26;;;;;;;9.25;3.90;;;;;;;-145.50;100.00;65435.88;4954374;28;20157;-71
2021/03/18 03:01:54;;;;;;;10.18;3.28;;;;;;;-145.50;100.00;65435.88;4962951;28;20088;-71
2021/03/18 03:04:23;;;;;;;9.40;3.58;;;;;;;-145.50;100.00;65435.88;4938405;28;20146;-71
2021/03/18 03:06:51;;;;;;;8.07;3.40;;;;;;;-145.50;100.00;65435.88;4963162;28;20129;-73
2021/03/18 03:09:18;;;;;;;11.85;4.07;;;;;;;-145.50;100.00;65435.88;4958114;28;20149;-71
2021/03/18 03:11:44;;;;;;;16.45;4.18;;;;;;;-145.50;100.00;65435.88;4958422;28;20746;-73
2021/03/18 03:14:11;;;;;;;9.65;3.75;;;;;;;-145.50;100.00;65435.88;4944022;28;20145;-73
2021/03/18 03:16:37;;;;;;;14.20;3.70;;;;;;;-145.50;100.00;65435.88;4939365;28;20090;-73
2021/03/18 03:19:06;;;;;;;11.05;3.40;;;;;;;-145.50;100.00;65435.88;4963294;28;20166;-73
2021/03/18 03:21:33;;;;;;;13.98;3.75;;;;;;;-145.50;100.00;65435.88;4956127;28;20146;-73
2021/03/18 03:24:01;;;;;;;11.45;3.03;;;;;;;-145.50;100.00;65435.88;4961566;28;20157;-73
2021/03/18 03:26:27;;;;;;;8.77;3.22;;;;;;;-145.50;100.00;65435.88;4951875;28;20164;-73
2021/03/18 03:28:55;;;;;;;12.15;3.10;;;;;;;-145.50;100.00;65435.88;4962178;28;20109;-73
2021/03/18 03:31:21;;;;;;;12.38;3.40;;;;;;;-145.50;100.00;65435.88;4963227;28;20101;-73
2021/03/18 03:34:00;;;;;;;11.50;3.13;;;;;;;-145.50;100.00;65435.88;4956073;28;20646;-73
2021/03/18 03:36:26;;;;;;;14.50;3.20;;;;;;;-145.50;100.00;65435.88;4970859;28;20069;-74
2021/03/18 03:38:52;;;;;;;10.02;3.22;;;;;;;-145.50;100.00;65435.88;4957577;28;20054;-73
2021/03/18 03:41:18;;;;;;;8.60;2.90;;;;;;;-145.50;100.00;65435.88;4946465;28;20181;-73
2021/03/18 03:43:44;;;;;;;9.48;2.60;;;;;;;-145.50;100.00;65435.88;4950778;28;20074;-73
2021/03/18 03:46:10;;;;;;;7.32;3.20;;;;;;;-145.50;100.00;65435.88;4958889;28;20062;-73
2021/03/18 03:48:37;;;;;;;8.98;3.10;;;;;;;-145.50;100.00;65435.88;4961087;28;20050;-73
2021/03/18 03:51:03;;;;;;;9.63;2.78;;;;;;;-145.50;100.00;65435.88;4950465;28;20162;-73
2021/03/18 03:53:41;;;;;;;6.63;2.67;;;;;;;-145.50;100.00;65435.88;4960609;28;20086;-73
2021/03/18 03:56:20;;;;;;;9.07;3.17;;;;;;;-145.50;100.00;65435.88;4961113;28;20078;-73
2021/03/18 03:58:46;;;;;;;;;;;;;;;-145.50;100.00;65435.88;4966789;28;20563;-73
2021/03/18 04:01:22;;;;;;;7.38;3.55;;;;;;;-145.50;100.00;65435.88;4955369;28;19936;-73
2021/03/18 04:03:52;;;;;;;7.25;2.72;;;;;;;-145.50;100.00;65435.88;4949393;28;20055;-74
2021/03/18 04:06:19;;;;;;;8.00;2.90;;;;;;;-145.50;100.00;65435.88;4941315;28;20748;-73
2021/03/18 04:08:46;;;;;;;10.50;3.35;;;;;;;-145.50;100.00;65435.88;4962986;28;20086;-73
2021/03/18 04:11:14;;;;;;;10.13;3.10;;;;;;;-145.50;100.00;65435.88;4957490;28;20145;-72
2021/03/18 04:13:42;;;;;;;10.13;3.03;;;;;;;-145.50;100.00;65435.88;4960147;28;20070;-72
2021/03/18 04:16:09;;;;;;;7.90;3.30;;;;;;;-145.50;100.00;65435.88;4961322;28;20531;-72
2021/03/18 04:18:41;;;;;;;11.70;3.08;;;;;;;-145.50;100.00;65435.88;4959751;28;20919;-72
2021/03/18 04:21:10;;;;;;;7.18;2.90;;;;;;;-145.50;100.00;65435.88;4961712;28;20494;-73
2021/03/18 04:23:37;;;;;;;16.02;3.85;;;;;;;-145.50;100.00;65435.88;4960152;28;20761;-73
2021/03/18 04:26:05;;;;;;;10.70;3.47;;;;;;;-145.50;100.00;65435.88;4973218;28;20058;-73
2021/03/18 04:28:34;;;;;;;11.20;3.47;;;;;;;-145.50;100.00;65435.88;4964248;28;20170;-74
2021/03/18 04:31:01;;;;;;;7.95;3.88;;;;;;;-145.50;100.00;65435.88;4966697;28;20147;-73
2021/03/18 04:33:28;;;;;;;7.07;3.65;;;;;;;-145.50;100.00;65435.88;4956261;28;20065;-73
2021/03/18 04:35:56;;;;;;;9.80;4.00;;;;;;;-145.50;100.00;65435.88;4957743;28;20825;-74
2021/03/18 04:38:28;;;;;;;13.85;3.72;;;;;;;-145.50;100.00;65435.88;4967251;28;20471;-74
2021/03/18 04:40:55;;;;;;;7.60;3.63;;;;;;;-145.50;100.00;65435.88;4960954;28;20051;-73
2021/03/18 04:43:23;;;;;;;14.75;3.47;;;;;;;-145.50;100.00;65435.88;4945141;28;20062;-74
2021/03/18 04:45:50;;;;;;;9.18;3.50;;;;;;;-145.50;100.00;65435.88;4955508;28;20109;-73
2021/03/18 04:48:18;;;;;;;10.05;3.63;;;;;;;-145.50;100.00;65435.88;4958915;28;20578;-73
2021/03/18 04:50:44;;;;;;;11.75;4.53;;;;;;;-145.50;100.00;65435.88;4964456;28;20086;-73
2021/03/18 04:53:11;;;;;;;12.30;4.30;;;;;;;-145.50;100.00;65435.88;4965984;28;20062;-74
2021/03/18 04:55:37;;;;;;;17.70;4.28;;;;;;;-145.50;100.00;65435.88;4959022;28;20491;-73
2021/03/18 04:58:05;;;;;;;12.77;4.65;;;;;;;-145.50;100.00;65435.88;4966242;28;20125;-73
2021/03/18 05:00:34;;;;;;;9.13;4.07;;;;;;;-145.50;100.00;65435.88;4962277;28;20518;-73
2021/03/18 05:03:03;;;;;;;9.10;3.90;;;;;;;-145.50;100.00;65435.88;4955325;28;20415;-73
2021/03/18 05:05:30;;;;;;;;;;;;;;;-145.50;100.00;65435.88;4966752;28;20058;-73
2021/03/18 05:07:57;;;;;;;9.05;3.88;;;;;;;-145.50;100.00;65435.88;4959765;28;19980;-73
2021/03/18 05:10:29;;;;;;;10.85;4.03;;;;;;;-145.50;100.00;65435.88;4955768;28;20114;-73
2021/03/18 05:12:57;;;;;;;12.02;4.18;;;;;;;-145.50;100.00;65435.88;4952515;28;20513;-73
2021/03/18 05:15:25;;;;;;;9.02;3.80;;;;;;;-145.50;100.00;65435.88;4957666;28;20085;-74
2021/03/18 05:17:53;;;;;;;9.23;3.90;;;;;;;-145.50;100.00;65435.88;4938745;28;20099;-74
2021/03/18 05:20:23;;;;;;;8.77;4.40;;;;;;;-145.50;100.00;65435.88;4962194;28;20063;-74
2021/03/18 05:22:50;;;;;;;18.33;5.30;;;;;;;-145.50;100.00;65435.88;4964745;28;20070;-74
2021/03/18 05:25:20;;;;;;;10.40;4.70;;;;;;;-145.50;100.00;65435.88;4934569;28;20173;-74
2021/03/18 05:27:46;;;;;;;10.07;3.60;;;;;;;-145.50;100.00;65435.88;4954995;28;20110;-74
2021/03/18 05:30:14;;;;;;;15.50;4.80;;;;;;;-145.50;100.00;65435.88;4950052;28;20096;-73
2021/03/18 05:32:41;;;;;;;10.50;4.27;;;;;;;-145.50;100.00;65435.88;4962472;28;20082;-73
2021/03/18 05:35:09;;;;;;;11.23;4.60;;;;;;;-145.50;100.00;65435.88;4937482;28;20072;-73
2021/03/18 05:37:36;;;;;;;13.30;4.20;;;;;;;-145.50;100.00;65435.88;4960714;28;20082;-73
2021/03/18 05:40:04;;;;;;;12.43;4.75;;;;;;;-145.50;100.00;65435.88;4949574;28;20573;-73
2021/03/18 05:42:32;;;;;;;13.00;4.43;;;;;;;-145.50;100.00;65435.88;4951707;28;20763;-73
2021/03/18 05:44:59;;;;;;;8.43;4.30;;;;;;;-145.50;100.00;65435.88;4961391;28;20332;-73
2021/03/18 05:47:28;;;;;;;8.70;4.32;;;;;;;-145.50;100.00;65435.88;4956105;28;20066;-73
2021/03/18 05:49:54;;;;;;;9.32;3.95;;;;;;;-145.50;100.00;65435.88;4965297;28;20058;-73
2021/03/18 05:52:21;;;;;;;13.52;4.50;;;;;;;-145.50;100.00;65435.88;4963543;28;20063;-74
2021/03/18 05:54:49;;;;;;;12.70;5.15;;;;;;;-145.50;100.00;65435.88;4960695;28;20586;-73
2021/03/18 05:57:16;;;;;;;16.43;5.70;;;;;;;-145.50;100.00;65435.88;4937091;28;20571;-74
2021/03/18 05:59:43;;;;;;;14.35;6.45;;;;;;;-145.50;100.00;65435.88;4961624;28;20129;-73
2021/03/18 06:02:10;;;;;;;14.85;6.40;;;;;;;-145.50;100.00;65435.88;4959198;28;20554;-73
2021/03/18 06:04:36;;;;;;;16.45;6.10;;;;;;;-145.50;100.00;65435.88;4965055;28;20062;-73
2021/03/18 06:07:03;;;;;;;17.00;6.25;;;;;;;-145.50;100.00;65435.88;4961767;28;20054;-73
2021/03/18 06:09:30;;;;;;;15.57;5.45;;;;;;;-145.50;100.00;65435.88;4949423;28;20723;-74
2021/03/18 06:11:56;;;;;;;13.25;5.35;;;;;;;-145.50;100.00;65435.88;4935470;28;20059;-75
2021/03/18 06:14:22;;;;;;;14.35;6.40;;;;;;;-145.50;100.00;65435.88;4945798;28;20091;-74
2021/03/18 06:16:48;;;;;;;16.90;6.80;;;;;;;-145.50;100.00;65435.88;4946475;28;20063;-73
2021/03/18 06:19:15;;;;;;;13.13;4.93;;;;;;;-145.50;100.00;65435.88;4944280;28;20537;-72
2021/03/18 06:21:53;;;;;;;14.23;4.93;;;;;;;-145.50;100.00;65435.88;4960350;28;20931;-73
2021/03/18 06:24:20;;;;;;;12.13;4.10;;;;;;;-145.50;100.00;65435.88;4944354;28;20066;-73
2021/03/18 06:26:47;;;;;;;14.98;4.45;;;;;;;-145.50;100.00;65435.88;4964324;28;20094;-73
2021/03/18 06:29:34;;;;;;;13.00;4.32;;;;;;;-145.50;100.00;65435.88;4947650;28;20086;-73
2021/03/18 06:32:14;;;;;;;10.77;4.32;;;;;;;-145.50;100.00;65435.88;4960847;28;20113;-72
2021/03/18 06:34:45;;;;;;;12.75;4.35;;;;;;;-145.50;100.00;65435.88;4956823;28;20419;-72
2021/03/18 06:37:35;;;;;;;13.38;4.35;;;;;;;-145.50;100.00;65435.88;4925567;28;20094;-74
2021/03/18 06:40:07;;;;;;;14.38;4.15;;;;;;;-145.50;100.00;65435.88;4962689;28;20491;-75
2021/03/18 06:42:33;;;;;;;11.98;4.75;;;;;;;-145.50;100.00;65435.88;4955403;28;20180;-74
2021/03/18 06:45:18;;;;;;;13.43;4.47;;;;;;;-145.50;100.00;65435.88;4965007;28;20090;-72
2021/03/18 06:47:47;;;;;;;14.15;4.20;;;;;;;-145.50;100.00;65435.88;4957345;28;20462;-73
2021/03/18 06:50:14;;;;;;;;;;;;;;;-145.50;100.00;65435.88;4961277;28;20062;-72
2021/03/18 06:52:41;;;;;;;14.07;5.10;;;;;;;-145.50;100.00;65435.88;4958546;28;19926;-72
2021/03/18 06:55:11;;;;;;;13.32;4.57;;;;;;;-145.50;100.00;65435.88;4944104;28;20067;-73
2021/03/18 06:57:38;;;;;;;9.93;4.30;;;;;;;-145.50;100.00;65435.88;4951506;28;20066;-73
2021/03/18 07:00:08;;;;;;;15.43;4.72;;;;;;;-145.50;100.00;65435.88;4957120;28;20487;-72
2021/03/18 07:02:40;;;;;;;11.13;4.70;;;;;;;-145.50;100.00;65435.88;4960085;28;20522;-72
2021/03/18 07:05:18;;;;;;;12.35;5.20;;;;;;;-145.50;100.00;65435.88;4937262;28;20063;-72
2021/03/18 07:07:47;;;;;;;15.93;4.88;;;;;;;-145.50;100.00;65435.88;4962395;28;20483;-72
2021/03/18 07:10:13;;;;;;;11.65;4.80;;;;;;;-145.50;100.00;65435.88;4942260;28;20111;-72
2021/03/18 07:12:41;;;;;;;14.02;5.47;;;;;;;-145.50;100.00;65435.88;4967652;28;20067;-72
2021/03/18 07:15:18;;;;;;;17.52;5.00;;;;;;;-145.50;100.00;65435.88;4961796;28;20171;-73
2021/03/18 07:17:44;;;;;;;11.68;4.65;;;;;;;-145.50;100.00;65435.88;4954556;28;20138;-75
2021/03/18 07:20:20;;;;;;;14.75;4.85;;;;;;;-145.50;100.00;65435.88;4964833;28;20059;-74
2021/03/18 07:22:49;;;;;;;12.95;5.60;;;;;;;-145.50;100.00;65435.88;4966390;28;20092;-74
2021/03/18 07:25:18;;;;;;;17.73;5.65;;;;;;;-145.50;100.00;65435.88;4967834;28;20062;-74
2021/03/18 07:27:49;;;;;;;16.67;5.97;;;;;;;-145.50;100.00;65435.88;4943513;28;20061;-74
2021/03/18 07:30:25;;;;;;;12.07;6.28;;;;;;;-145.50;100.00;65435.88;4942591;28;20078;-74
2021/03/18 07:32:52;;;;;;;12.43;6.25;;;;;;;-145.50;100.00;65435.88;4957033;28;20562;-73
2021/03/18 07:35:18;;;;;;;13.68;6.00;;;;;;;-145.50;100.00;65435.88;4943471;28;20058;-74
2021/03/18 07:37:44;;;;;;;13.52;6.00;;;;;;;-145.50;100.00;65435.88;4960515;28;20117;-75
2021/03/18 07:40:11;;;;;;;19.65;6.65;;;;;;;-145.50;100.00;65435.88;4967411;28;20125;-75
2021/03/18 07:42:38;;;;;;;12.07;6.10;;;;;;;-145.50;100.00;65435.88;4945164;28;20150;-74
2021/03/18 07:45:06;;;;;;;13.32;5.75;;;;;;;-145.50;100.00;65435.88;4961839;28;20161;-75
2021/03/18 07:47:34;;;;;;;18.58;6.13;;;;;;;-145.50;100.00;65435.88;4951002;28;20451;-75
2021/03/18 07:50:05;;;;;;;15.88;6.47;;;;;;;-145.50;100.00;65435.88;4949749;28;20058;-75
2021/03/18 07:52:34;;;;;;;18.40;5.60;;;;;;;-145.50;100.00;65435.88;4971131;28;20080;-74
2021/03/18 07:55:01;;;;;;;14.25;5.65;;;;;;;-145.50;100.00;65435.88;4962217;28;20066;-74
2021/03/18 07:57:39;;;;;;;20.35;5.90;;;;;;;-145.50;100.00;65435.88;4964048;28;20073;-73
2021/03/18 08:00:16;;;;;;;15.65;6.20;;;;;;;-145.50;100.00;65435.88;4940129;28;20055;-73
2021/03/18 08:02:42;;;;;;;16.98;6.00;;;;;;;-145.50;100.00;65435.88;4949683;28;20062;-75
2021/03/18 08:05:09;;;;;;;16.17;6.45;;;;;;;-145.50;100.00;65435.88;4960851;28;20426;-74
2021/03/18 08:07:53;;;;;;;15.00;5.47;;;;;;;-145.50;100.00;65435.88;4967238;28;20051;-74
2021/03/18 08:10:22;;;;;;;19.00;6.25;;;;;;;-145.50;100.00;65435.88;4957955;28;20058;-73
2021/03/18 08:12:49;;;;;;;12.27;5.90;;;;;;;-145.50;100.00;65435.88;4962190;28;20102;-73
2021/03/18 08:15:23;;;;;;;17.58;6.00;;;;;;;-145.50;100.00;65435.88;4967915;28;20074;-75
2021/03/18 08:17:53;;;;;;;15.07;5.97;;;;;;;-145.50;100.00;65435.88;4961477;28;20094;-73
2021/03/18 08:20:42;;;;;;;31.52;7.43;;;;;;;-145.50;100.00;65435.88;4960902;28;20070;-73
2021/03/18 08:23:23;;;;;;;25.45;5.93;;;;;;;-145.50;100.00;65435.88;4960763;28;20903;-73
2021/03/18 08:25:54;;;;;;;16.85;5.50;;;;;;;-145.50;100.00;65435.88;4960182;28;20566;-74
2021/03/18 08:28:39;;;;;;;17.13;6.25;;;;;;;-145.50;100.00;65435.88;4961242;28;20069;-73
2021/03/18 08:31:08;;;;;;;18.70;6.10;;;;;;;-145.50;100.00;65435.88;4960354;28;20058;-74
2021/03/18 08:33:35;;;;;;;;;;;;;;;-145.50;100.00;65435.88;4960447;28;20058;-73
2021/03/18 08:36:19;;;;;;;13.10;5.85;;;;;;;-145.50;100.00;65435.88;4967461;28;19953;-73
2021/03/18 08:38:45;;;;;;;27.38;6.90;;;;;;;-145.50;100.00;65435.88;4940380;28;20062;-74
2021/03/18 08:41:25;;;;;;;15.82;6.47;;;;;;;-145.50;100.00;65435.88;4932436;28;20054;-74
2021/03/18 08:44:15;;;;;;;15.52;6.18;;;;;;;-145.50;100.00;65435.88;4943859;28;20503;-74
2021/03/18 08:47:00;;;;;;;16.65;6.05;;;;;;;-145.50;100.00;65435.88;4938068;28;20122;-74
2021/03/18 08:49:32;;;;;;;21.33;7.07;;;;;;;-145.50;100.00;65435.88;4960212;28;20059;-74
2021/03/18 08:52:04;;;;;;;24.85;6.97;;;;;;;-145.50;100.00;65435.88;4966997;28;20937;-73
2021/03/18 08:54:37;;;;;;;15.95;5.60;;;;;;;-145.50;100.00;65435.88;4964471;28;20507;-73
2021/03/18 08:57:04;;;;;;;19.08;6.80;;;;;;;-145.50;100.00;65435.88;4957534;28;20178;-73
2021/03/18 08:59:31;;;;;;;17.10;6.53;;;;;;;-145.50;100.00;65435.88;4959307;28;20063;-73
2021/03/18 09:02:05;;;;;;;21.92;6.78;;;;;;;-145.50;100.00;65435.88;4952143;28;20078;-73
2021/03/18 09:04:42;;;;;;;23.73;6.45;;;;;;;-145.50;100.00;65435.88;4962144;28;20062;-73
2021/03/18 09:07:11;;;;;;;13.65;5.57;;;;;;;-145.50;100.00;65435.88;4945661;28;20073;-74
2021/03/18 09:09:38;;;;;;;18.47;6.90;;;;;;;-145.50;100.00;65435.88;4945382;29;20063;-74
2021/03/18 09:12:08;;;;;;;16.42;6.53;;;;;;;-145.50;100.00;65435.88;4949245;28;20117;-74
2021/03/18 09:14:36;;;;;;;13.55;7.15;;;;;;;-145.50;100.00;65435.88;4965880;28;20062;-74
2021/03/18 09:17:12;;;;;;;14.43;7.87;;;;;;;-145.50;100.00;65435.88;4957191;28;20089;-74
2021/03/18 09:19:46;;;;;;;19.60;6.97;;;;;;;-145.50;100.00;65435.88;4961047;28;20284;-74
2021/03/18 09:22:24;;;;;;;19.40;6.78;;;;;;;-145.50;100.00;65435.88;4964712;28;20055;-74
2021/03/18 09:24:54;;;;;;;19.10;7.15;;;;;;;-145.50;100.00;65435.88;4944703;28;20158;-74
2021/03/18 09:27:20;;;;;;;20.25;7.07;;;;;;;-145.50;100.00;65435.88;4965497;28;20152;-74
2021/03/18 09:29:46;;;;;;;18.58;8.05;;;;;;;-145.50;100.00;65435.88;4959378;28;20597;-74
2021/03/18 09:32:13;;;;;;;25.08;8.90;;;;;;;-145.50;100.00;65435.88;4957498;28;20138;-74
2021/03/18 09:34:42;;;;;;;20.67;7.82;;;;;;;-145.50;100.00;65435.88;4955674;28;20407;-72
2021/03/18 09:37:12;;;;;;;18.52;8.10;;;;;;;-145.50;100.00;65435.88;4965732;28;20525;-73
2021/03/18 09:39:48;;;;;;;20.10;8.15;;;;;;;-145.50;100.00;65435.88;4959171;28;20058;-74
2021/03/18 09:42:16;;;;;;;22.50;7.97;;;;;;;-145.50;100.00;65435.88;4949163;28;20069;-74
2021/03/18 09:44:42;;;;;;;22.35;7.70;;;;;;;-145.50;100.00;65435.88;4939282;28;20078;-74
2021/03/18 09:47:09;;;;;;;23.35;8.55;;;;;;;-145.50;100.00;65435.88;4961363;28;20066;-73
2021/03/18 09:49:40;;;;;;;17.88;8.27;;;;;;;-145.50;100.00;65435.88;4944071;28;20055;-74
2021/03/18 09:52:11;;;;;;;18.15;7.90;;;;;;;-145.50;100.00;65435.88;4962007;28;20109;-74
2021/03/18 09:54:38;;;;;;;19.88;7.30;;;;;;;-145.50;100.00;65435.88;4964496;28;20113;-74
2021/03/18 09:57:07;;;;;;;21.98;7.65;;;;;;;-145.50;100.00;65435.88;4959646;28;20071;-73
2021/03/18 09:59:34;;;;;;;21.42;7.13;;;;;;;-145.50;100.00;65435.88;4942060;28;20544;-74
2021/03/18 10:02:00;;;;;;;21.38;6.75;;;;;;;-145.50;100.00;65435.88;4955614;28;20451;-74
2021/03/18 10:04:27;;;;;;;26.17;7.78;;;;;;;-145.50;100.00;65435.88;4957311;28;20077;-74
2021/03/18 10:06:58;;;;;;;17.63;7.40;;;;;;;-145.50;100.00;65435.88;4960384;28;20058;-74
2021/03/18 10:09:41;;;;;;;18.15;7.15;;;;;;;-145.50;100.00;65435.88;4947291;28;20059;-74
2021/03/18 10:12:10;;;;;;;18.40;7.80;;;;;;;-145.50;100.00;65435.88;4954815;28;20110;-74
2021/03/18 10:14:45;;;;;;;21.55;8.18;;;;;;;-145.50;100.00;65435.88;4956634;28;20522;-74
2021/03/18 10:17:14;;;;;;;22.58;7.68;;;;;;;-145.50;100.00;65435.88;4963908;28;20735;-74
2021/03/18 10:19:48;;;;;;;25.63;7.28;;;;;;;-145.50;100.00;65435.88;4959136;28;20055;-74
2021/03/18 10:22:15;;;;;;;17.30;7.15;;;;;;;-145.50;100.00;65435.88;4963869;28;20157;-74
2021/03/18 10:24:41;;;;;;;22.98;7.03;;;;;;;-145.50;100.00;65435.88;4958089;28;20114;-74
2021/03/18 10:27:16;;;;;;;26.88;5.75;;;;;;;-145.50;100.00;65435.88;4958813;28;20545;-73
2021/03/18 10:29:43;;;;;;;27.63;5.68;;;;;;;-145.50;100.00;65435.88;4956895;28;20598;-74
2021/03/18 10:32:12;;;;;;;21.05;5.40;;;;;;;-145.50;100.00;65435.88;4964383;28;20389;-74
2021/03/18 10:34:39;;;;;;;19.33;5.10;;;;;;;-145.50;100.00;65435.88;4955054;28;20059;-75
2021/03/18 10:37:23;;;;;;;27.80;6.10;;;;;;;-145.50;100.00;65435.88;4966629;28;20122;-73
2021/03/18 10:39:49;;;;;;;24.08;5.45;;;;;;;-145.50;100.00;65435.88;4958017;28;20062;-74
2021/03/18 10:42:15;;;;;;;26.33;5.97;;;;;;;-145.50;100.00;65435.88;4953955;28;20109;-74
2021/03/18 10:44:43;;;;;;;34.45;5.88;;;;;;;-145.50;100.00;65435.88;4963059;28;20067;-74
2021/03/18 10:47:17;;;;;;;26.02;5.63;;;;;;;-145.50;100.00;65435.88;4963789;28;20522;-74
2021/03/18 10:50:19;;;;;;;27.67;5.97;;;;;;;-145.50;100.00;65435.88;4958244;28;20054;-74
2021/03/18 10:53:04;;;;;;;29.17;5.65;;;;;;;-145.50;100.00;65435.88;4920962;28;20117;-74
2021/03/18 10:55:34;;;;;;;23.60;5.47;;;;;;;-145.50;100.00;65435.88;4964462;28;20408;-74
2021/03/18 10:58:03;;;;;;;23.38;5.30;;;;;;;-145.50;100.00;65435.88;4962252;28;20284;-74
2021/03/18 11:00:33;;;;;;;15.73;4.07;;;;;;;-145.50;100.00;65435.88;4967867;28;20058;-74
2021/03/18 11:03:01;;;;;;;24.30;6.05;;;;;;;-145.50;100.00;65435.88;4960412;28;20058;-74
2021/03/18 11:05:51;;;;;;;24.42;5.90;;;;;;;-145.50;100.00;65435.88;4967133;28;20077;-74
2021/03/18 11:08:26;;;;;;;25.45;4.85;;;;;;;-145.50;100.00;65435.88;4958073;28;20058;-74
2021/03/18 11:10:54;;;;;;;28.20;5.93;;;;;;;-145.50;100.00;65435.88;4967910;28;20443;-74
2021/03/18 11:13:28;;;;;;;22.52;4.60;;;;;;;-145.50;100.00;65435.88;4963465;28;20062;-74
2021/03/18 11:16:03;;;;;;;20.98;4.68;;;;;;;-145.50;100.00;65435.88;4950049;28;20070;-74
2021/03/18 11:18:41;;;;;;;25.75;4.65;;;;;;;-145.50;100.00;65435.88;4966685;28;20054;-74